sensor_id;sensor_type;location;lat;lon;timestamp;pressure;altitude;pressure_sealevel;temperature;humidity
79465;BME280;68932;47.410;8.232;2023-03-31T00:00:22;96352.16;;;11.43;68.01
79465;BME280;68932;47.410;8.232;2023-03-31T00:02:49;96347.20;;;11.41;68.08
79465;BME280;68932;47.410;8.232;2023-03-31T00:05:16;96347.17;;;11.39;68.29
79465;BME280;68932;47.410;8.232;2023-03-31T00:07:43;96347.75;;;11.38;68.35
79465;BME280;68932;47.410;8.232;2023-03-31T00:10:11;96355.27;;;11.39;68.32
79465;BME280;68932;47.410;8.232;2023-03-31T00:12:38;96359.88;;;11.38;68.42
79465;BME280;68932;47.410;8.232;2023-03-31T00:15:06;96378.60;;;11.39;68.36
79465;BME280;68932;47.410;8.232;2023-03-31T00:17:34;96362.96;;;11.42;68.29
79465;BME280;68932;47.410;8.232;2023-03-31T00:20:01;96360.72;;;11.43;68.48
79465;BME280;68932;47.410;8.232;2023-03-31T00:22:28;96365.60;;;11.44;68.95
79465;BME280;68932;47.410;8.232;2023-03-31T00:24:55;96363.24;;;11.45;69.59
79465;BME280;68932;47.410;8.232;2023-03-31T00:27:22;96351.42;;;11.46;69.88
79465;BME280;68932;47.410;8.232;2023-03-31T00:29:49;96355.42;;;11.48;70.37
79465;BME280;68932;47.410;8.232;2023-03-31T00:32:17;96362.09;;;11.50;70.42
79465;BME280;68932;47.410;8.232;2023-03-31T00:34:45;96366.48;;;11.52;70.54
79465;BME280;68932;47.410;8.232;2023-03-31T00:37:12;96380.85;;;11.53;70.78
79465;BME280;68932;47.410;8.232;2023-03-31T00:39:39;96343.92;;;11.51;71.04
79465;BME280;68932;47.410;8.232;2023-03-31T00:42:05;96343.91;;;11.49;71.08
79465;BME280;68932;47.410;8.232;2023-03-31T00:44:32;96340.75;;;11.50;71.11
79465;BME280;68932;47.410;8.232;2023-03-31T00:47:02;96328.48;;;11.49;71.32
79465;BME280;68932;47.410;8.232;2023-03-31T00:49:33;96329.47;;;11.50;71.71
79465;BME280;68932;47.410;8.232;2023-03-31T00:52:03;96321.36;;;11.50;71.85
79465;BME280;68932;47.410;8.232;2023-03-31T00:54:31;96317.00;;;11.50;71.99
79465;BME280;68932;47.410;8.232;2023-03-31T00:57:00;96324.52;;;11.50;72.17
79465;BME280;68932;47.410;8.232;2023-03-31T00:59:29;96321.87;;;11.51;72.30
79465;BME280;68932;47.410;8.232;2023-03-31T01:01:58;96309.54;;;11.51;72.34
79465;BME280;68932;47.410;8.232;2023-03-31T01:04:26;96295.92;;;11.50;72.49
79465;BME280;68932;47.410;8.232;2023-03-31T01:06:57;96283.39;;;11.47;72.52
79465;BME280;68932;47.410;8.232;2023-03-31T01:09:29;96279.84;;;11.41;72.66
79465;BME280;68932;47.410;8.232;2023-03-31T01:11:56;96274.47;;;11.33;72.69
79465;BME280;68932;47.410;8.232;2023-03-31T01:14:23;96282.02;;;11.27;72.77
79465;BME280;68932;47.410;8.232;2023-03-31T01:16:51;96284.23;;;11.23;72.79
79465;BME280;68932;47.410;8.232;2023-03-31T01:19:21;96278.79;;;11.24;72.86
79465;BME280;68932;47.410;8.232;2023-03-31T01:22:18;96273.23;;;11.25;72.95
79465;BME280;68932;47.410;8.232;2023-03-31T01:25:24;96271.88;;;11.22;73.19
79465;BME280;68932;47.410;8.232;2023-03-31T01:28:12;96270.39;;;11.20;73.32
79465;BME280;68932;47.410;8.232;2023-03-31T01:34:08;96272.05;;;11.22;73.41
79465;BME280;68932;47.410;8.232;2023-03-31T01:37:09;96262.88;;;11.23;73.44
79465;BME280;68932;47.410;8.232;2023-03-31T01:40:15;96263.34;;;11.24;73.50
79465;BME280;68932;47.410;8.232;2023-03-31T01:42:50;96262.96;;;11.26;73.50
79465;BME280;68932;47.410;8.232;2023-03-31T01:45:26;96260.43;;;11.29;73.36
79465;BME280;68932;47.410;8.232;2023-03-31T01:48:00;96252.98;;;11.30;73.40
79465;BME280;68932;47.410;8.232;2023-03-31T01:50:32;96248.39;;;11.31;73.40
79465;BME280;68932;47.410;8.232;2023-03-31T01:53:06;96249.48;;;11.30;73.47
79465;BME280;68932;47.410;8.232;2023-03-31T01:55:38;96240.52;;;11.31;73.39
79465;BME280;68932;47.410;8.232;2023-03-31T01:58:11;96235.77;;;11.31;73.35
79465;BME280;68932;47.410;8.232;2023-03-31T02:00:46;96231.08;;;11.30;73.37
79465;BME280;68932;47.410;8.232;2023-03-31T02:03:18;96228.55;;;11.31;73.31
79465;BME280;68932;47.410;8.232;2023-03-31T02:05:50;96231.20;;;11.33;73.29
79465;BME280;68932;47.410;8.232;2023-03-31T02:08:22;96227.08;;;11.34;73.28
79465;BME280;68932;47.410;8.232;2023-03-31T02:10:51;96214.70;;;11.33;73.39
79465;BME280;68932;47.410;8.232;2023-03-31T02:13:20;96209.50;;;11.30;73.50
79465;BME280;68932;47.410;8.232;2023-03-31T02:15:52;96191.85;;;11.27;73.58
79465;BME280;68932;47.410;8.232;2023-03-31T02:18:24;96188.05;;;11.26;73.68
79465;BME280;68932;47.410;8.232;2023-03-31T02:20:53;96184.49;;;11.25;73.77
79465;BME280;68932;47.410;8.232;2023-03-31T02:23:24;96182.86;;;11.21;73.78
79465;BME280;68932;47.410;8.232;2023-03-31T02:25:54;96180.35;;;11.17;73.96
79465;BME280;68932;47.410;8.232;2023-03-31T02:28:26;96176.77;;;11.16;73.94
79465;BME280;68932;47.410;8.232;2023-03-31T02:31:02;96171.88;;;11.13;73.83
79465;BME280;68932;47.410;8.232;2023-03-31T02:33:32;96162.30;;;11.10;73.76
79465;BME280;68932;47.410;8.232;2023-03-31T02:35:59;96144.41;;;11.10;73.80
79465;BME280;68932;47.410;8.232;2023-03-31T02:38:27;96128.58;;;11.11;73.85
79465;BME280;68932;47.410;8.232;2023-03-31T02:40:56;96130.96;;;11.09;73.94
79465;BME280;68932;47.410;8.232;2023-03-31T02:43:23;96123.50;;;11.07;74.22
79465;BME280;68932;47.410;8.232;2023-03-31T02:45:51;96105.30;;;11.04;74.36
79465;BME280;68932;47.410;8.232;2023-03-31T02:48:20;96112.10;;;11.00;74.38
79465;BME280;68932;47.410;8.232;2023-03-31T02:54:11;96110.27;;;10.92;74.71
79465;BME280;68932;47.410;8.232;2023-03-31T02:57:00;96090.73;;;10.93;74.84
79465;BME280;68932;47.410;8.232;2023-03-31T02:59:40;96080.10;;;10.93;74.75
79465;BME280;68932;47.410;8.232;2023-03-31T03:02:19;96077.96;;;10.93;74.80
79465;BME280;68932;47.410;8.232;2023-03-31T03:05:10;96075.49;;;10.91;74.86
79465;BME280;68932;47.410;8.232;2023-03-31T03:07:45;96057.38;;;10.90;74.79
79465;BME280;68932;47.410;8.232;2023-03-31T03:10:18;96047.89;;;10.88;74.61
79465;BME280;68932;47.410;8.232;2023-03-31T03:12:51;96032.16;;;10.87;74.59
79465;BME280;68932;47.410;8.232;2023-03-31T03:15:25;96016.58;;;10.87;74.68
79465;BME280;68932;47.410;8.232;2023-03-31T03:17:55;96010.70;;;10.88;74.81
79465;BME280;68932;47.410;8.232;2023-03-31T03:20:24;96008.42;;;10.90;74.88
79465;BME280;68932;47.410;8.232;2023-03-31T03:22:51;96000.57;;;10.90;74.73
79465;BME280;68932;47.410;8.232;2023-03-31T03:25:18;95992.27;;;10.91;74.80
79465;BME280;68932;47.410;8.232;2023-03-31T03:27:46;95989.23;;;10.89;74.69
79465;BME280;68932;47.410;8.232;2023-03-31T03:30:14;95983.34;;;10.88;74.70
79465;BME280;68932;47.410;8.232;2023-03-31T03:32:41;95973.67;;;10.87;74.83
79465;BME280;68932;47.410;8.232;2023-03-31T03:35:10;95971.04;;;10.86;74.83
79465;BME280;68932;47.410;8.232;2023-03-31T03:37:37;95964.32;;;10.85;74.72
79465;BME280;68932;47.410;8.232;2023-03-31T03:40:07;95940.24;;;10.84;74.55
79465;BME280;68932;47.410;8.232;2023-03-31T03:42:34;95930.98;;;10.82;74.61
79465;BME280;68932;47.410;8.232;2023-03-31T03:45:01;95910.20;;;10.80;74.65
79465;BME280;68932;47.410;8.232;2023-03-31T03:47:28;95910.03;;;10.80;74.51
79465;BME280;68932;47.410;8.232;2023-03-31T03:49:55;95907.85;;;10.79;74.47
79465;BME280;68932;47.410;8.232;2023-03-31T03:52:22;95914.94;;;10.75;74.59
79465;BME280;68932;47.410;8.232;2023-03-31T03:54:49;95911.89;;;10.74;74.71
79465;BME280;68932;47.410;8.232;2023-03-31T03:57:16;95902.84;;;10.74;74.75
79465;BME280;68932;47.410;8.232;2023-03-31T03:59:43;95897.25;;;10.73;74.67
79465;BME280;68932;47.410;8.232;2023-03-31T04:02:10;95893.40;;;10.73;74.62
79465;BME280;68932;47.410;8.232;2023-03-31T04:04:37;95895.16;;;10.73;74.66
79465;BME280;68932;47.410;8.232;2023-03-31T04:07:04;95900.64;;;10.73;74.68
79465;BME280;68932;47.410;8.232;2023-03-31T04:09:31;95902.05;;;10.73;74.73
79465;BME280;68932;47.410;8.232;2023-03-31T04:11:58;95898.91;;;10.73;74.76
79465;BME280;68932;47.410;8.232;2023-03-31T04:14:26;95899.48;;;10.74;74.80
79465;BME280;68932;47.410;8.232;2023-03-31T04:16:52;95886.70;;;10.72;74.64
79465;BME280;68932;47.410;8.232;2023-03-31T04:19:19;95874.90;;;10.70;74.51
79465;BME280;68932;47.410;8.232;2023-03-31T04:21:46;95863.91;;;10.72;74.31
79465;BME280;68932;47.410;8.232;2023-03-31T04:24:13;95859.27;;;10.73;74.14
79465;BME280;68932;47.410;8.232;2023-03-31T04:26:41;95849.15;;;10.74;74.02
79465;BME280;68932;47.410;8.232;2023-03-31T04:29:08;95832.80;;;10.75;73.56
79465;BME280;68932;47.410;8.232;2023-03-31T04:31:36;95833.27;;;10.74;73.72
79465;BME280;68932;47.410;8.232;2023-03-31T04:34:03;95823.38;;;10.72;73.81
79465;BME280;68932;47.410;8.232;2023-03-31T04:36:31;95810.34;;;10.71;73.65
79465;BME280;68932;47.410;8.232;2023-03-31T04:38:58;95825.10;;;10.69;73.44
79465;BME280;68932;47.410;8.232;2023-03-31T04:41:25;95839.86;;;10.66;73.47
79465;BME280;68932;47.410;8.232;2023-03-31T04:43:53;95833.35;;;10.64;73.59
79465;BME280;68932;47.410;8.232;2023-03-31T04:46:20;95826.70;;;10.62;73.45
79465;BME280;68932;47.410;8.232;2023-03-31T04:48:48;95825.36;;;10.61;72.53
79465;BME280;68932;47.410;8.232;2023-03-31T04:51:15;95821.90;;;10.61;72.04
79465;BME280;68932;47.410;8.232;2023-03-31T04:53:42;95827.14;;;10.61;72.38
79465;BME280;68932;47.410;8.232;2023-03-31T04:56:08;95816.13;;;10.61;72.32
79465;BME280;68932;47.410;8.232;2023-03-31T04:58:35;95808.25;;;10.61;72.47
79465;BME280;68932;47.410;8.232;2023-03-31T05:01:02;95800.92;;;10.63;72.67
79465;BME280;68932;47.410;8.232;2023-03-31T05:03:29;95797.96;;;10.64;71.90
79465;BME280;68932;47.410;8.232;2023-03-31T05:05:57;95805.98;;;10.67;71.97
79465;BME280;68932;47.410;8.232;2023-03-31T05:08:24;95800.70;;;10.69;72.22
79465;BME280;68932;47.410;8.232;2023-03-31T05:10:51;95797.41;;;10.71;72.13
79465;BME280;68932;47.410;8.232;2023-03-31T05:13:18;95792.90;;;10.72;71.56
79465;BME280;68932;47.410;8.232;2023-03-31T05:15:45;95794.06;;;10.75;71.59
79465;BME280;68932;47.410;8.232;2023-03-31T05:18:13;95790.52;;;10.77;71.29
79465;BME280;68932;47.410;8.232;2023-03-31T05:20:39;95795.95;;;10.80;71.27
79465;BME280;68932;47.410;8.232;2023-03-31T05:23:06;95801.17;;;10.85;70.94
79465;BME280;68932;47.410;8.232;2023-03-31T05:25:33;95800.25;;;10.89;70.88
79465;BME280;68932;47.410;8.232;2023-03-31T05:28:00;95800.51;;;10.92;71.19
79465;BME280;68932;47.410;8.232;2023-03-31T05:30:28;95826.42;;;10.93;71.35
79465;BME280;68932;47.410;8.232;2023-03-31T05:32:55;95827.17;;;10.90;71.52
79465;BME280;68932;47.410;8.232;2023-03-31T05:35:22;95802.09;;;10.90;71.68
79465;BME280;68932;47.410;8.232;2023-03-31T05:37:49;95786.46;;;10.90;71.70
79465;BME280;68932;47.410;8.232;2023-03-31T05:40:16;95792.73;;;10.91;72.00
79465;BME280;68932;47.410;8.232;2023-03-31T05:42:44;95796.20;;;10.93;72.13
79465;BME280;68932;47.410;8.232;2023-03-31T05:45:11;95795.15;;;10.95;72.29
79465;BME280;68932;47.410;8.232;2023-03-31T05:47:38;95782.70;;;10.97;72.44
79465;BME280;68932;47.410;8.232;2023-03-31T05:50:06;95779.23;;;11.01;72.38
79465;BME280;68932;47.410;8.232;2023-03-31T05:52:34;95784.58;;;11.04;72.26
79465;BME280;68932;47.410;8.232;2023-03-31T05:55:01;95785.58;;;11.06;72.44
79465;BME280;68932;47.410;8.232;2023-03-31T05:57:28;95770.56;;;11.10;72.16
79465;BME280;68932;47.410;8.232;2023-03-31T05:59:55;95767.55;;;11.14;72.14
79465;BME280;68932;47.410;8.232;2023-03-31T06:02:22;95772.05;;;11.17;72.00
79465;BME280;68932;47.410;8.232;2023-03-31T06:04:48;95789.02;;;11.19;72.06
79465;BME280;68932;47.410;8.232;2023-03-31T06:07:15;95785.85;;;11.22;72.10
79465;BME280;68932;47.410;8.232;2023-03-31T06:09:42;95787.95;;;11.24;71.91
79465;BME280;68932;47.410;8.232;2023-03-31T06:12:09;95807.27;;;11.28;71.86
79465;BME280;68932;47.410;8.232;2023-03-31T06:14:36;95803.33;;;11.33;71.73
79465;BME280;68932;47.410;8.232;2023-03-31T06:17:03;95797.66;;;11.37;71.76
79465;BME280;68932;47.410;8.232;2023-03-31T06:19:30;95803.08;;;11.41;71.80
79465;BME280;68932;47.410;8.232;2023-03-31T06:21:57;95824.02;;;11.45;71.69
79465;BME280;68932;47.410;8.232;2023-03-31T06:24:24;95821.23;;;11.46;71.68
79465;BME280;68932;47.410;8.232;2023-03-31T06:26:51;95804.26;;;11.48;71.76
79465;BME280;68932;47.410;8.232;2023-03-31T06:29:19;95798.52;;;11.51;71.87
79465;BME280;68932;47.410;8.232;2023-03-31T06:31:46;95793.73;;;11.53;71.87
79465;BME280;68932;47.410;8.232;2023-03-31T06:34:13;95796.98;;;11.56;71.71
79465;BME280;68932;47.410;8.232;2023-03-31T06:36:40;95789.75;;;11.61;71.58
79465;BME280;68932;47.410;8.232;2023-03-31T06:39:07;95791.73;;;11.65;71.57
79465;BME280;68932;47.410;8.232;2023-03-31T06:41:34;95775.48;;;11.68;71.25
79465;BME280;68932;47.410;8.232;2023-03-31T06:44:00;95782.92;;;11.73;71.35
79465;BME280;68932;47.410;8.232;2023-03-31T06:46:28;95792.70;;;11.79;71.15
79465;BME280;68932;47.410;8.232;2023-03-31T06:48:54;95799.27;;;11.86;70.62
79465;BME280;68932;47.410;8.232;2023-03-31T06:51:22;95808.14;;;11.91;70.61
79465;BME280;68932;47.410;8.232;2023-03-31T06:53:49;95823.95;;;11.95;70.39
79465;BME280;68932;47.410;8.232;2023-03-31T06:56:16;95823.75;;;11.99;69.77
79465;BME280;68932;47.410;8.232;2023-03-31T06:58:43;95824.11;;;12.02;69.85
79465;BME280;68932;47.410;8.232;2023-03-31T07:01:10;95821.31;;;12.04;69.63
79465;BME280;68932;47.410;8.232;2023-03-31T07:03:36;95808.23;;;12.06;69.75
79465;BME280;68932;47.410;8.232;2023-03-31T07:06:05;95822.59;;;12.09;69.50
79465;BME280;68932;47.410;8.232;2023-03-31T07:11:00;95834.63;;;12.13;68.34
79465;BME280;68932;47.410;8.232;2023-03-31T07:13:28;95825.73;;;12.14;68.28
79465;BME280;68932;47.410;8.232;2023-03-31T07:15:55;95834.38;;;12.16;68.03
79465;BME280;68932;47.410;8.232;2023-03-31T07:18:23;95837.79;;;12.17;67.91
79465;BME280;68932;47.410;8.232;2023-03-31T07:20:50;95841.89;;;12.18;68.15
79465;BME280;68932;47.410;8.232;2023-03-31T07:23:17;95836.38;;;12.19;68.84
79465;BME280;68932;47.410;8.232;2023-03-31T07:25:45;95830.60;;;12.19;69.21
79465;BME280;68932;47.410;8.232;2023-03-31T07:28:12;95837.38;;;12.18;69.30
79465;BME280;68932;47.410;8.232;2023-03-31T07:30:40;95839.02;;;12.17;69.45
79465;BME280;68932;47.410;8.232;2023-03-31T07:33:08;95842.64;;;12.16;69.35
79465;BME280;68932;47.410;8.232;2023-03-31T07:35:38;95842.79;;;12.16;69.35
79465;BME280;68932;47.410;8.232;2023-03-31T07:38:08;95842.80;;;12.20;69.33
79465;BME280;68932;47.410;8.232;2023-03-31T07:40:36;95824.36;;;12.24;69.12
79465;BME280;68932;47.410;8.232;2023-03-31T07:43:03;95813.16;;;12.29;68.78
79465;BME280;68932;47.410;8.232;2023-03-31T07:45:33;95816.95;;;12.32;68.07
79465;BME280;68932;47.410;8.232;2023-03-31T07:48:00;95809.31;;;12.35;67.34
79465;BME280;68932;47.410;8.232;2023-03-31T07:50:27;95799.07;;;12.39;66.79
79465;BME280;68932;47.410;8.232;2023-03-31T07:52:54;95798.98;;;12.42;66.79
79465;BME280;68932;47.410;8.232;2023-03-31T07:55:21;95799.84;;;12.46;66.51
79465;BME280;68932;47.410;8.232;2023-03-31T07:57:48;95804.06;;;12.54;66.44
79465;BME280;68932;47.410;8.232;2023-03-31T08:00:18;95821.30;;;12.63;66.84
79465;BME280;68932;47.410;8.232;2023-03-31T08:02:45;95827.39;;;12.75;67.20
79465;BME280;68932;47.410;8.232;2023-03-31T08:05:14;95836.89;;;12.87;66.93
79465;BME280;68932;47.410;8.232;2023-03-31T08:07:43;95834.52;;;12.95;66.45
79465;BME280;68932;47.410;8.232;2023-03-31T08:10:13;95839.34;;;13.04;66.15
79465;BME280;68932;47.410;8.232;2023-03-31T08:12:40;95833.98;;;13.10;65.62
79465;BME280;68932;47.410;8.232;2023-03-31T08:15:09;95832.05;;;13.15;65.35
79465;BME280;68932;47.410;8.232;2023-03-31T08:17:36;95824.19;;;13.21;65.39
79465;BME280;68932;47.410;8.232;2023-03-31T08:20:05;95814.98;;;13.25;65.33
79465;BME280;68932;47.410;8.232;2023-03-31T08:22:32;95824.48;;;13.27;64.85
79465;BME280;68932;47.410;8.232;2023-03-31T08:24:59;95823.74;;;13.24;64.88
79465;BME280;68932;47.410;8.232;2023-03-31T08:27:26;95831.28;;;13.22;65.06
79465;BME280;68932;47.410;8.232;2023-03-31T08:29:53;95830.14;;;13.23;65.29
79465;BME280;68932;47.410;8.232;2023-03-31T08:32:22;95833.08;;;13.22;65.18
79465;BME280;68932;47.410;8.232;2023-03-31T08:34:49;95838.05;;;13.19;65.13
79465;BME280;68932;47.410;8.232;2023-03-31T08:37:16;95833.90;;;13.17;65.08
79465;BME280;68932;47.410;8.232;2023-03-31T08:39:43;95827.27;;;13.16;65.16
79465;BME280;68932;47.410;8.232;2023-03-31T08:42:14;95833.41;;;13.20;65.43
79465;BME280;68932;47.410;8.232;2023-03-31T08:44:44;95853.34;;;13.23;65.44
79465;BME280;68932;47.410;8.232;2023-03-31T08:47:17;95839.35;;;13.26;65.95
79465;BME280;68932;47.410;8.232;2023-03-31T08:49:48;95830.69;;;13.32;65.97
79465;BME280;68932;47.410;8.232;2023-03-31T08:52:19;95824.77;;;13.39;65.70
79465;BME280;68932;47.410;8.232;2023-03-31T08:54:52;95825.45;;;13.46;65.46
79465;BME280;68932;47.410;8.232;2023-03-31T08:57:25;95831.43;;;13.52;65.18
79465;BME280;68932;47.410;8.232;2023-03-31T08:59:54;95838.86;;;13.52;65.25
79465;BME280;68932;47.410;8.232;2023-03-31T09:02:28;95824.06;;;13.48;65.57
79465;BME280;68932;47.410;8.232;2023-03-31T09:05:15;95824.71;;;13.42;65.84
79465;BME280;68932;47.410;8.232;2023-03-31T09:07:53;95815.59;;;13.34;66.05
79465;BME280;68932;47.410;8.232;2023-03-31T09:10:34;95807.77;;;13.25;66.49
79465;BME280;68932;47.410;8.232;2023-03-31T09:13:13;95808.00;;;13.19;66.76
79465;BME280;68932;47.410;8.232;2023-03-31T09:15:46;95791.96;;;13.19;66.75
79465;BME280;68932;47.410;8.232;2023-03-31T09:18:26;95789.88;;;13.26;67.02
79465;BME280;68932;47.410;8.232;2023-03-31T09:20:58;95787.86;;;13.40;67.29
79465;BME280;68932;47.410;8.232;2023-03-31T09:23:31;95793.41;;;13.59;66.82
79465;BME280;68932;47.410;8.232;2023-03-31T09:26:01;95788.42;;;13.78;66.59
79465;BME280;68932;47.410;8.232;2023-03-31T09:28:31;95775.60;;;13.95;66.54
79465;BME280;68932;47.410;8.232;2023-03-31T09:31:03;95769.14;;;14.17;66.63
79465;BME280;68932;47.410;8.232;2023-03-31T09:33:31;95771.07;;;14.36;65.96
79465;BME280;68932;47.410;8.232;2023-03-31T09:35:59;95797.52;;;14.54;65.24
79465;BME280;68932;47.410;8.232;2023-03-31T09:38:26;95800.55;;;14.52;64.56
79465;BME280;68932;47.410;8.232;2023-03-31T09:40:53;95797.33;;;14.47;64.95
79465;BME280;68932;47.410;8.232;2023-03-31T09:43:22;95769.17;;;14.41;64.86
79465;BME280;68932;47.410;8.232;2023-03-31T09:45:50;95769.73;;;14.33;64.49
79465;BME280;68932;47.410;8.232;2023-03-31T09:48:19;95771.66;;;14.30;63.54
79465;BME280;68932;47.410;8.232;2023-03-31T09:50:49;95771.05;;;14.38;63.93
79465;BME280;68932;47.410;8.232;2023-03-31T09:53:23;95776.98;;;14.40;63.02
79465;BME280;68932;47.410;8.232;2023-03-31T09:55:54;95769.35;;;14.45;61.55
79465;BME280;68932;47.410;8.232;2023-03-31T09:58:21;95763.52;;;14.55;61.40
79465;BME280;68932;47.410;8.232;2023-03-31T10:00:59;95760.70;;;14.62;61.39
79465;BME280;68932;47.410;8.232;2023-03-31T10:03:27;95742.55;;;14.74;60.44
79465;BME280;68932;47.410;8.232;2023-03-31T10:05:56;95725.66;;;14.89;58.99
79465;BME280;68932;47.410;8.232;2023-03-31T10:08:26;95720.60;;;15.06;58.30
79465;BME280;68932;47.410;8.232;2023-03-31T10:10:56;95719.10;;;15.20;57.03
79465;BME280;68932;47.410;8.232;2023-03-31T10:13:25;95710.66;;;15.33;56.41
79465;BME280;68932;47.410;8.232;2023-03-31T10:15:54;95711.58;;;15.47;55.54
79465;BME280;68932;47.410;8.232;2023-03-31T10:18:30;95694.85;;;15.54;54.90
79465;BME280;68932;47.410;8.232;2023-03-31T10:20:57;95693.72;;;15.55;53.85
79465;BME280;68932;47.410;8.232;2023-03-31T10:23:29;95692.23;;;15.49;54.65
79465;BME280;68932;47.410;8.232;2023-03-31T10:25:56;95693.59;;;15.38;54.92
79465;BME280;68932;47.410;8.232;2023-03-31T10:28:25;95712.06;;;15.25;55.08
79465;BME280;68932;47.410;8.232;2023-03-31T10:30:55;95733.73;;;15.10;54.53
79465;BME280;68932;47.410;8.232;2023-03-31T10:33:24;95708.69;;;14.90;54.26
79465;BME280;68932;47.410;8.232;2023-03-31T10:35:56;95694.21;;;14.68;55.83
79465;BME280;68932;47.410;8.232;2023-03-31T10:38:26;95738.91;;;14.42;55.96
79465;BME280;68932;47.410;8.232;2023-03-31T10:40:57;95728.48;;;14.14;58.65
79465;BME280;68932;47.410;8.232;2023-03-31T10:43:29;95719.80;;;13.83;58.99
79465;BME280;68932;47.410;8.232;2023-03-31T10:46:00;95737.28;;;13.52;59.69
79465;BME280;68932;47.410;8.232;2023-03-31T10:48:28;95714.85;;;13.21;60.37
79465;BME280;68932;47.410;8.232;2023-03-31T10:50:59;95715.73;;;12.92;59.79
79465;BME280;68932;47.410;8.232;2023-03-31T10:53:26;95709.13;;;12.67;60.23
79465;BME280;68932;47.410;8.232;2023-03-31T10:56:02;95714.39;;;12.50;61.63
79465;BME280;68932;47.410;8.232;2023-03-31T10:58:41;95710.46;;;12.34;62.03
79465;BME280;68932;47.410;8.232;2023-03-31T11:01:23;95719.73;;;12.19;62.99
79465;BME280;68932;47.410;8.232;2023-03-31T11:04:06;95733.10;;;12.06;63.69
79465;BME280;68932;47.410;8.232;2023-03-31T11:06:47;95734.80;;;11.94;63.75
79465;BME280;68932;47.410;8.232;2023-03-31T11:09:32;95740.73;;;11.83;63.31
79465;BME280;68932;47.410;8.232;2023-03-31T11:12:07;95717.52;;;11.68;62.74
79465;BME280;68932;47.410;8.232;2023-03-31T11:14:48;95705.52;;;11.59;62.82
79465;BME280;68932;47.410;8.232;2023-03-31T11:17:29;95697.12;;;11.61;63.32
79465;BME280;68932;47.410;8.232;2023-03-31T11:20:06;95672.95;;;11.74;64.03
79465;BME280;68932;47.410;8.232;2023-03-31T11:22:45;95680.77;;;11.92;64.10
79465;BME280;68932;47.410;8.232;2023-03-31T11:25:26;95687.81;;;12.17;65.27
79465;BME280;68932;47.410;8.232;2023-03-31T11:28:03;95691.09;;;12.46;65.55
79465;BME280;68932;47.410;8.232;2023-03-31T11:30:38;95680.04;;;12.77;65.40
79465;BME280;68932;47.410;8.232;2023-03-31T11:33:24;95678.48;;;12.99;64.75
79465;BME280;68932;47.410;8.232;2023-03-31T11:36:05;95667.27;;;13.26;64.26
79465;BME280;68932;47.410;8.232;2023-03-31T11:38:44;95669.27;;;13.56;64.77
79465;BME280;68932;47.410;8.232;2023-03-31T11:41:16;95666.63;;;13.77;64.68
79465;BME280;68932;47.410;8.232;2023-03-31T11:43:47;95663.82;;;13.90;63.96
79465;BME280;68932;47.410;8.232;2023-03-31T11:46:18;95662.27;;;13.93;61.87
79465;BME280;68932;47.410;8.232;2023-03-31T11:48:52;95659.33;;;13.92;61.97
79465;BME280;68932;47.410;8.232;2023-03-31T11:51:22;95652.31;;;13.88;61.75
79465;BME280;68932;47.410;8.232;2023-03-31T11:53:52;95653.79;;;13.82;61.47
79465;BME280;68932;47.410;8.232;2023-03-31T11:56:22;95676.20;;;13.75;60.61
79465;BME280;68932;47.410;8.232;2023-03-31T11:58:53;95751.46;;;13.64;59.17
79465;BME280;68932;47.410;8.232;2023-03-31T12:01:24;95745.73;;;13.30;57.75
79465;BME280;68932;47.410;8.232;2023-03-31T12:03:57;95721.21;;;12.90;57.72
79465;BME280;68932;47.410;8.232;2023-03-31T12:06:30;95718.40;;;12.62;58.81
79465;BME280;68932;47.410;8.232;2023-03-31T12:09:06;95733.73;;;12.43;58.71
79465;BME280;68932;47.410;8.232;2023-03-31T12:11:42;95789.26;;;12.25;58.97
79465;BME280;68932;47.410;8.232;2023-03-31T12:14:22;95828.34;;;12.03;58.47
79465;BME280;68932;47.410;8.232;2023-03-31T12:16:54;95802.75;;;11.79;59.49
79465;BME280;68932;47.410;8.232;2023-03-31T12:19:27;95789.20;;;11.59;61.32
79465;BME280;68932;47.410;8.232;2023-03-31T12:21:59;95763.70;;;11.46;61.93
79465;BME280;68932;47.410;8.232;2023-03-31T12:24:30;95746.52;;;11.44;61.89
79465;BME280;68932;47.410;8.232;2023-03-31T12:27:04;95737.06;;;11.51;62.48
79465;BME280;68932;47.410;8.232;2023-03-31T12:29:37;95730.04;;;11.68;61.81
79465;BME280;68932;47.410;8.232;2023-03-31T12:32:08;95725.36;;;11.84;61.34
79465;BME280;68932;47.410;8.232;2023-03-31T12:34:43;95715.84;;;11.94;61.07
79465;BME280;68932;47.410;8.232;2023-03-31T12:37:45;95728.44;;;12.03;60.43
79465;BME280;68932;47.410;8.232;2023-03-31T12:40:22;95724.77;;;12.12;60.83
79465;BME280;68932;47.410;8.232;2023-03-31T12:46:27;95733.21;;;12.29;59.75
79465;BME280;68932;47.410;8.232;2023-03-31T12:49:12;95727.62;;;12.35;58.99
79465;BME280;68932;47.410;8.232;2023-03-31T12:51:58;95713.73;;;12.44;58.77
79465;BME280;68932;47.410;8.232;2023-03-31T12:54:48;95708.58;;;12.51;58.44
79465;BME280;68932;47.410;8.232;2023-03-31T12:57:22;95703.61;;;12.56;58.54
79465;BME280;68932;47.410;8.232;2023-03-31T13:00:12;95698.02;;;12.64;58.82
79465;BME280;68932;47.410;8.232;2023-03-31T13:02:41;95687.11;;;12.71;58.20
79465;BME280;68932;47.410;8.232;2023-03-31T13:08:08;95669.48;;;12.85;57.80
79465;BME280;68932;47.410;8.232;2023-03-31T13:10:57;95664.08;;;12.90;57.25
79465;BME280;68932;47.410;8.232;2023-03-31T13:13:25;95668.39;;;12.92;56.35
79465;BME280;68932;47.410;8.232;2023-03-31T13:15:55;95668.33;;;12.93;56.05
79465;BME280;68932;47.410;8.232;2023-03-31T13:18:22;95674.66;;;12.93;55.54
79465;BME280;68932;47.410;8.232;2023-03-31T13:20:58;95667.75;;;12.94;55.86
79465;BME280;68932;47.410;8.232;2023-03-31T13:23:26;95674.02;;;12.94;55.17
79465;BME280;68932;47.410;8.232;2023-03-31T13:25:55;95670.62;;;12.95;54.90
79465;BME280;68932;47.410;8.232;2023-03-31T13:28:40;95671.16;;;12.93;54.47
79465;BME280;68932;47.410;8.232;2023-03-31T13:31:08;95669.83;;;12.90;54.43
79465;BME280;68932;47.410;8.232;2023-03-31T13:33:40;95662.31;;;12.86;56.10